sensor_id;sensor_type;location;lat;lon;timestamp;pressure;altitude;pressure_sealevel;temperature;humidity
7586;BME280;12459;42.646;23.292;2023-08-20T00:06:54;93872.69;;;22.08;77.00
7586;BME280;12459;42.646;23.292;2023-08-20T00:21:56;93857.41;;;21.86;75.48
7586;BME280;12459;42.646;23.292;2023-08-20T00:36:57;93744.63;;;21.36;73.33
7586;BME280;12459;42.646;23.292;2023-08-20T00:51:59;93983.09;;;23.19;71.23
7586;BME280;12459;42.646;23.292;2023-08-20T01:38:08;93753.19;;;21.29;77.55
7586;BME280;12459;42.646;23.292;2023-08-20T01:53:10;93980.19;;;22.63;77.26
7586;BME280;12459;42.646;23.292;2023-08-20T02:08:12;93671.44;;;20.43;78.04
7586;BME280;12459;42.646;23.292;2023-08-20T02:23:14;93659.84;;;20.57;77.72
7586;BME280;12459;42.646;23.292;2023-08-20T02:38:15;93693.50;;;20.68;78.30
7586;BME280;12459;42.646;23.292;2023-08-20T02:53:17;93811.97;;;21.45;77.58
7586;BME280;12459;42.646;23.292;2023-08-20T03:08:19;93700.47;;;20.36;82.48
7586;BME280;12459;42.646;23.292;2023-08-20T03:23:21;93692.22;;;19.98;85.93
7586;BME280;12459;42.646;23.292;2023-08-20T03:38:23;93857.31;;;20.85;88.21
7586;BME280;12459;42.646;23.292;2023-08-20T03:53:25;93811.47;;;20.51;86.80
7586;BME280;12459;42.646;23.292;2023-08-20T04:08:26;93801.34;;;20.75;86.72
7586;BME280;12459;42.646;23.292;2023-08-20T04:23:28;93821.78;;;21.03;88.63
7586;BME280;12459;42.646;23.292;2023-08-20T04:38:30;93872.94;;;21.09;89.72
7586;BME280;12459;42.646;23.292;2023-08-20T04:53:32;93879.09;;;21.42;93.06
7586;BME280;12459;42.646;23.292;2023-08-20T05:08:33;93932.00;;;22.07;89.87
7586;BME280;12459;42.646;23.292;2023-08-20T05:23:35;93958.03;;;23.06;83.86
7586;BME280;12459;42.646;23.292;2023-08-20T05:38:37;93920.41;;;23.71;78.86
7586;BME280;12459;42.646;23.292;2023-08-20T05:53:39;93856.38;;;23.63;75.01
7586;BME280;12459;42.646;23.292;2023-08-20T06:08:40;93874.81;;;24.34;74.16
7586;BME280;12459;42.646;23.292;2023-08-20T06:23:55;93924.34;;;25.14;73.39
7586;BME280;12459;42.646;23.292;2023-08-20T06:38:57;93947.94;;;25.80;69.37
7586;BME280;12459;42.646;23.292;2023-08-20T06:53:59;93771.53;;;25.31;64.02
7586;BME280;12459;42.646;23.292;2023-08-20T07:09:00;93834.59;;;25.85;61.35
7586;BME280;12459;42.646;23.292;2023-08-20T07:24:02;93878.94;;;26.37;59.70
7586;BME280;12459;42.646;23.292;2023-08-20T07:39:05;93945.50;;;26.97;58.66
7586;BME280;12459;42.646;23.292;2023-08-20T07:54:06;93997.31;;;27.32;60.13
7586;BME280;12459;42.646;23.292;2023-08-20T08:09:27;93939.03;;;27.06;56.81
7586;BME280;12459;42.646;23.292;2023-08-20T08:24:29;93956.28;;;27.12;54.56
7586;BME280;12459;42.646;23.292;2023-08-20T08:39:32;93959.50;;;27.44;53.11
7586;BME280;12459;42.646;23.292;2023-08-20T08:54:35;93825.72;;;26.40;53.65
7586;BME280;12459;42.646;23.292;2023-08-20T09:09:37;94020.56;;;27.43;49.46
7586;BME280;12459;42.646;23.292;2023-08-20T09:24:51;93981.69;;;27.96;49.40
7586;BME280;12459;42.646;23.292;2023-08-20T09:39:53;93551.00;;;25.57;47.52
7586;BME280;12459;42.646;23.292;2023-08-20T09:55:00;93963.28;;;28.74;46.29
7586;BME280;12459;42.646;23.292;2023-08-20T10:10:07;93712.13;;;27.07;45.15
7586;BME280;12459;42.646;23.292;2023-08-20T10:25:22;93854.03;;;28.59;42.10
7586;BME280;12459;42.646;23.292;2023-08-20T10:55:49;93889.78;;;29.06;42.65
7586;BME280;12459;42.646;23.292;2023-08-20T11:10:51;93797.97;;;28.76;44.47
7586;BME280;12459;42.646;23.292;2023-08-20T11:25:53;93730.41;;;28.88;43.98
7586;BME280;12459;42.646;23.292;2023-08-20T11:40:55;93833.47;;;29.45;44.28
7586;BME280;12459;42.646;23.292;2023-08-20T11:55:59;93796.38;;;29.97;41.95
7586;BME280;12459;42.646;23.292;2023-08-20T12:11:01;93822.94;;;29.19;43.42
7586;BME280;12459;42.646;23.292;2023-08-20T12:26:03;93913.97;;;29.98;43.26
7586;BME280;12459;42.646;23.292;2023-08-20T12:41:05;93569.59;;;27.95;44.56
7586;BME280;12459;42.646;23.292;2023-08-20T12:56:07;93920.69;;;30.27;43.32
7586;BME280;12459;42.646;23.292;2023-08-20T13:11:13;93886.13;;;30.14;43.13
7586;BME280;12459;42.646;23.292;2023-08-20T13:26:15;93500.13;;;26.83;44.68
7586;BME280;12459;42.646;23.292;2023-08-20T13:41:18;93878.44;;;30.07;44.32
7586;BME280;12459;42.646;23.292;2023-08-20T13:56:19;93746.56;;;29.46;43.12
7586;BME280;12459;42.646;23.292;2023-08-20T14:11:21;93750.56;;;28.77;43.97
7586;BME280;12459;42.646;23.292;2023-08-20T14:26:23;93642.59;;;28.13;43.20
7586;BME280;12459;42.646;23.292;2023-08-20T14:41:25;93894.25;;;29.39;44.26
7586;BME280;12459;42.646;23.292;2023-08-20T14:56:26;93770.38;;;28.51;44.23
7586;BME280;12459;42.646;23.292;2023-08-20T15:11:28;93707.03;;;28.40;42.77
7586;BME280;12459;42.646;23.292;2023-08-20T15:26:30;93831.19;;;28.65;44.21
7586;BME280;12459;42.646;23.292;2023-08-20T15:41:35;93799.75;;;28.43;44.64
7586;BME280;12459;42.646;23.292;2023-08-20T15:56:38;93905.03;;;28.83;45.00
7586;BME280;12459;42.646;23.292;2023-08-20T16:11:40;93794.97;;;28.08;45.14
7586;BME280;12459;42.646;23.292;2023-08-20T16:26:42;93930.81;;;28.55;45.71
7586;BME280;12459;42.646;23.292;2023-08-20T16:41:44;93826.72;;;27.74;47.03
7586;BME280;12459;42.646;23.292;2023-08-20T16:56:46;93818.19;;;27.08;48.90
7586;BME280;12459;42.646;23.292;2023-08-20T17:11:47;93819.72;;;26.64;48.53
7586;BME280;12459;42.646;23.292;2023-08-20T17:26:49;93881.47;;;27.02;49.22
7586;BME280;12459;42.646;23.292;2023-08-20T17:41:51;93976.75;;;27.67;47.88
7586;BME280;12459;42.646;23.292;2023-08-20T17:56:53;93822.22;;;26.40;48.49
7586;BME280;12459;42.646;23.292;2023-08-20T18:11:54;93867.97;;;26.37;48.81
7586;BME280;12459;42.646;23.292;2023-08-20T18:26:56;93896.16;;;26.27;49.29
7586;BME280;12459;42.646;23.292;2023-08-20T18:41:59;93952.22;;;26.74;49.17
7586;BME280;12459;42.646;23.292;2023-08-20T18:57:01;94022.59;;;27.20;49.56
7586;BME280;12459;42.646;23.292;2023-08-20T19:12:05;93704.13;;;24.65;49.96
7586;BME280;12459;42.646;23.292;2023-08-20T19:27:06;93878.31;;;25.94;49.77
7586;BME280;12459;42.646;23.292;2023-08-20T19:42:08;93655.69;;;24.45;50.38
7586;BME280;12459;42.646;23.292;2023-08-20T19:57:11;93956.66;;;26.32;50.19
7586;BME280;12459;42.646;23.292;2023-08-20T20:12:13;93829.59;;;25.78;49.48
7586;BME280;12459;42.646;23.292;2023-08-20T20:27:14;93768.91;;;25.00;49.83
7586;BME280;12459;42.646;23.292;2023-08-20T20:42:16;93745.38;;;24.93;50.29
7586;BME280;12459;42.646;23.292;2023-08-20T20:57:18;93949.13;;;26.27;50.23
7586;BME280;12459;42.646;23.292;2023-08-20T21:12:20;93953.22;;;25.89;52.08
7586;BME280;12459;42.646;23.292;2023-08-20T21:27:21;93923.88;;;25.64;51.11
7586;BME280;12459;42.646;23.292;2023-08-20T21:42:25;94070.41;;;26.46;52.26
7586;BME280;12459;42.646;23.292;2023-08-20T21:57:27;93641.75;;;23.17;53.68
7586;BME280;12459;42.646;23.292;2023-08-20T22:12:29;93974.91;;;24.81;57.57
7586;BME280;12459;42.646;23.292;2023-08-20T22:27:31;94023.75;;;24.83;58.54
7586;BME280;12459;42.646;23.292;2023-08-20T22:42:33;93849.38;;;23.41;60.12
7586;BME280;12459;42.646;23.292;2023-08-20T22:57:34;93593.34;;;21.31;63.17
7586;BME280;12459;42.646;23.292;2023-08-20T23:12:36;93911.34;;;23.44;64.87
7586;BME280;12459;42.646;23.292;2023-08-20T23:27:39;93934.47;;;22.64;69.46
7586;BME280;12459;42.646;23.292;2023-08-20T23:42:40;93836.72;;;21.94;68.95
7586;BME280;12459;42.646;23.292;2023-08-20T23:57:42;93585.25;;;20.16;70.83
